Time;durP1;ratioP1;P1;durP2;ratioP2;P2;SDS_P1;SDS_P2;PMS_P1;PMS_P2;Temp;Humidity;BMP_temperature;BMP_pressure;BME280_temperature;BME280_humidity;BME280_pressure;Samples;Min_cycle;Max_cycle;Signal;HPM_P1;HPM_P2
2021/01/27 00:01:58;;;;;;;44.60;22.67;;;2.00;99.90;;;;;;5028576;28;20391;-45
2021/01/27 00:04:24;;;;;;;43.75;22.42;;;1.90;99.90;;;;;;5027597;28;20077;-45
2021/01/27 00:06:49;;;;;;;43.03;23.15;;;1.90;99.90;;;;;;5028317;28;20064;-46
2021/01/27 00:09:15;;;;;;;41.33;21.27;;;1.90;99.90;;;;;;5029534;28;20033;-45
2021/01/27 00:11:40;;;;;;;41.05;21.63;;;1.80;99.90;;;;;;5029688;28;20030;-44
2021/01/27 00:14:06;;;;;;;42.00;22.10;;;1.80;99.90;;;;;;5029498;28;20040;-45
2021/01/27 00:16:31;;;;;;;41.60;22.98;;;1.80;99.90;;;;;;5028706;28;20032;-45
2021/01/27 00:18:57;;;;;;;41.85;22.58;;;1.70;99.90;;;;;;5028909;28;20144;-46
2021/01/27 00:21:22;;;;;;;40.50;21.50;;;1.70;99.90;;;;;;5029449;28;20552;-45
2021/01/27 00:23:48;;;;;;;39.85;22.08;;;1.70;99.90;;;;;;5029326;28;20029;-45
2021/01/27 00:26:13;;;;;;;46.28;24.90;;;1.80;99.90;;;;;;5027536;28;20127;-45
2021/01/27 00:28:39;;;;;;;39.10;21.55;;;1.80;99.90;;;;;;5029376;28;20656;-45
2021/01/27 00:31:04;;;;;;;44.13;22.20;;;1.80;99.90;;;;;;5029495;28;20025;-45
2021/01/27 00:33:30;;;;;;;44.25;21.70;;;1.80;99.90;;;;;;5029222;28;20027;-46
2021/01/27 00:35:55;;;;;;;43.88;22.70;;;1.80;99.90;;;;;;5026080;28;20021;-47
2021/01/27 00:38:24;;;;;;;41.15;21.30;;;1.80;99.90;;;;;;5027969;28;20342;-45
2021/01/27 00:40:52;;;;;;;48.17;25.05;;;1.90;99.90;;;;;;5028060;28;20038;-46
2021/01/27 00:43:17;;;;;;;37.85;22.13;;;1.90;99.90;;;;;;5028093;28;20087;-45
2021/01/27 00:45:43;;;;;;;43.28;22.38;;;1.90;99.90;;;;;;5027439;28;20502;-46
2021/01/27 00:48:09;;;;;;;41.65;22.85;;;1.90;99.90;;;;;;5010663;28;20032;-44
2021/01/27 00:50:35;;;;;;;47.95;23.15;;;1.90;99.90;;;;;;5031246;28;20052;-47
2021/01/27 00:53:01;;;;;;;44.65;22.77;;;1.90;99.90;;;;;;5031481;28;20030;-46
2021/01/27 00:55:29;;;;;;;47.65;22.83;;;1.90;99.90;;;;;;5029449;28;20540;-45
2021/01/27 00:57:55;;;;;;;44.63;22.33;;;2.00;99.90;;;;;;5031450;28;20025;-46
2021/01/27 01:00:25;;;;;;;43.40;21.48;;;2.00;99.90;;;;;;5029445;28;20033;-45
2021/01/27 01:02:51;;;;;;;40.78;22.40;;;2.00;99.90;;;;;;5013322;28;20104;-45
2021/01/27 01:05:26;;;;;;;39.47;21.42;;;2.00;99.90;;;;;;5029134;28;20145;-47
2021/01/27 01:07:52;;;;;;;42.95;21.10;;;2.00;99.90;;;;;;5032426;28;20032;-48
2021/01/27 01:10:32;;;;;;;42.00;22.85;;;2.00;99.90;;;;;;5032101;28;20025;-45
2021/01/27 01:12:59;;;;;;;46.25;24.95;;;2.00;99.90;;;;;;5031886;28;20454;-46
2021/01/27 01:15:26;;;;;;;48.55;23.58;;;2.00;99.90;;;;;;5030445;28;20033;-49
2021/01/27 01:17:52;;;;;;;47.08;24.38;;;2.00;99.90;;;;;;5030762;28;20022;-47
2021/01/27 01:20:17;;;;;;;42.60;22.65;;;2.00;99.90;;;;;;5030629;28;20521;-46
2021/01/27 01:22:44;;;;;;;51.92;24.15;;;2.00;99.90;;;;;;5030730;28;20040;-45
2021/01/27 01:25:10;;;;;;;49.75;24.30;;;2.00;99.90;;;;;;5030027;28;20028;-47
2021/01/27 01:27:36;;;;;;;42.13;23.10;;;2.00;99.90;;;;;;5029970;28;20022;-46
2021/01/27 01:30:04;;;;;;;47.97;23.75;;;2.00;99.90;;;;;;5030651;28;20483;-45
2021/01/27 01:32:30;;;;;;;46.90;23.65;;;2.00;99.90;;;;;;5030789;28;20029;-48
2021/01/27 01:34:55;;;;;;;44.83;23.20;;;2.00;99.90;;;;;;5029985;28;20079;-44
2021/01/27 01:37:21;;;;;;;45.45;23.65;;;2.00;99.90;;;;;;5030667;28;20286;-46
2021/01/27 01:39:47;;;;;;;42.92;22.85;;;2.00;99.90;;;;;;5012783;28;20386;-46
2021/01/27 01:42:17;;;;;;;50.05;24.90;;;2.00;99.90;;;;;;5030193;28;20030;-46
2021/01/27 01:44:42;;;;;;;55.50;24.53;;;2.10;99.90;;;;;;5029845;28;20553;-44
2021/01/27 01:47:08;;;;;;;50.80;25.20;;;2.10;99.90;;;;;;5030377;28;20061;-45
2021/01/27 01:49:33;;;;;;;45.72;24.73;;;2.10;99.90;;;;;;5029996;28;20090;-44
2021/01/27 01:52:01;;;;;;;53.88;25.98;;;2.10;99.90;;;;;;5030146;28;20033;-45
2021/01/27 01:54:46;;;;;;;55.78;27.38;;;2.20;99.90;;;;;;5029652;28;20033;-43
2021/01/27 01:57:17;;;;;;;49.05;25.73;;;2.20;99.90;;;;;;5030052;28;20036;-45
2021/01/27 02:00:03;;;;;;;51.05;24.90;;;2.20;99.90;;;;;;5029427;28;20065;-44
2021/01/27 02:02:28;;;;;;;55.47;27.60;;;2.20;99.90;;;;;;5030354;28;20027;-46
2021/01/27 02:05:01;;;;;;;51.40;27.25;;;2.20;99.90;;;;;;5029589;28;20029;-45
2021/01/27 02:07:27;;;;;;;56.10;27.23;;;2.10;99.90;;;;;;5030079;28;20532;-48
2021/01/27 02:09:53;;;;;;;55.85;27.27;;;2.10;99.90;;;;;;5029942;28;20018;-46
2021/01/27 02:12:32;;;;;;;53.30;26.55;;;2.10;99.90;;;;;;5028684;28;20044;-46
2021/01/27 02:15:43;;;;;;;58.10;28.40;;;2.10;99.90;;;;;;5029546;28;20026;-46
2021/01/27 02:18:14;;;;;;;57.85;27.83;;;2.10;99.90;;;;;;5029851;28;20364;-45
2021/01/27 02:21:08;;;;;;;55.50;28.38;;;2.10;99.90;;;;;;5028932;28;20121;-46
2021/01/27 02:24:07;;;;;;;59.67;28.00;;;2.10;99.90;;;;;;5029563;28;20479;-46
2021/01/27 02:27:01;;;;;;;55.00;28.73;;;2.00;99.90;;;;;;5011211;28;20550;-46
2021/01/27 02:29:47;;;;;;;53.67;27.13;;;2.00;99.90;;;;;;5029478;28;20025;-45
2021/01/27 02:32:42;;;;;;;57.65;28.75;;;2.00;99.90;;;;;;5029476;28;20037;-46
2021/01/27 02:35:25;;;;;;;61.15;29.75;;;2.10;99.90;;;;;;5028265;28;20064;-45
2021/01/27 02:38:00;;;;;;;60.20;29.38;;;2.00;99.90;;;;;;5029707;28;20491;-45
2021/01/27 02:40:51;;;;;;;57.40;28.45;;;2.00;99.90;;;;;;5029331;28;20120;-46
2021/01/27 02:43:33;;;;;;;53.83;27.50;;;2.10;99.90;;;;;;5029125;28;20033;-44
2021/01/27 02:46:10;;;;;;;57.00;29.60;;;2.10;99.90;;;;;;5028939;28;20030;-45
2021/01/27 02:48:43;;;;;;;64.78;30.48;;;2.10;99.90;;;;;;5028943;28;20017;-45
2021/01/27 02:51:15;;;;;;;61.17;28.77;;;2.00;99.90;;;;;;5027845;28;20025;-45
2021/01/27 02:53:50;;;;;;;61.00;31.67;;;2.10;99.90;;;;;;5029079;28;20037;-44
2021/01/27 02:56:25;;;;;;;61.78;29.80;;;2.00;99.90;;;;;;5028549;28;20499;-45
2021/01/27 02:59:09;;;;;;;63.88;29.58;;;2.00;99.90;;;;;;5029451;28;20493;-43
2021/01/27 03:01:42;;;;;;;65.05;30.73;;;2.00;99.90;;;;;;5028474;28;20022;-45
2021/01/27 03:04:15;;;;;;;62.47;30.08;;;2.00;99.90;;;;;;5029117;28;20442;-44
2021/01/27 03:06:43;;;;;;;57.75;29.63;;;2.00;99.90;;;;;;5027104;28;20025;-44
2021/01/27 03:09:16;;;;;;;67.03;33.38;;;2.10;99.90;;;;;;5028785;28;20021;-44
2021/01/27 03:11:41;;;;;;;66.70;32.40;;;2.10;99.90;;;;;;5028707;28;20490;-46
2021/01/27 03:14:08;;;;;;;62.22;31.13;;;2.10;99.90;;;;;;5028574;28;20045;-43
2021/01/27 03:16:41;;;;;;;66.10;31.17;;;2.10;99.90;;;;;;5028421;28;20383;-45
2021/01/27 03:19:32;;;;;;;66.90;30.92;;;2.00;99.90;;;;;;5028549;28;20044;-45
2021/01/27 03:22:15;;;;;;;67.55;32.33;;;2.10;99.90;;;;;;5027741;28;20060;-46
2021/01/27 03:24:53;;;;;;;71.78;32.90;;;2.10;99.90;;;;;;5028256;28;20029;-46
2021/01/27 03:27:25;;;;;;;67.97;32.33;;;2.10;99.90;;;;;;5029010;28;20018;-44
2021/01/27 03:29:53;;;;;;;68.90;32.80;;;2.10;99.90;;;;;;5028059;28;20112;-45
2021/01/27 03:32:24;;;;;;;70.38;34.22;;;2.10;99.90;;;;;;5028049;28;20029;-45
2021/01/27 03:35:06;;;;;;;74.45;33.65;;;2.00;99.90;;;;;;5027060;28;20033;-45
2021/01/27 03:37:37;;;;;;;72.35;34.05;;;2.10;99.90;;;;;;5028498;28;20478;-45
2021/01/27 03:40:07;;;;;;;70.05;33.78;;;2.10;99.90;;;;;;5028953;28;20041;-44
2021/01/27 03:42:58;;;;;;;66.35;33.72;;;2.10;99.90;;;;;;5027245;28;20176;-44
2021/01/27 03:45:26;;;;;;;68.47;33.72;;;2.10;99.90;;;;;;5027701;28;20086;-44
2021/01/27 03:48:02;;;;;;;62.42;32.00;;;2.00;99.90;;;;;;5027025;28;20126;-44
2021/01/27 03:50:29;;;;;;;67.75;32.97;;;2.00;99.90;;;;;;5028489;28;20112;-44
2021/01/27 03:52:59;;;;;;;67.05;32.75;;;2.00;99.90;;;;;;5028584;28;20021;-45
2021/01/27 03:55:42;;;;;;;63.35;32.90;;;2.00;99.90;;;;;;5026626;28;20072;-44
2021/01/27 03:58:16;;;;;;;61.10;32.53;;;2.00;99.90;;;;;;5028112;28;20117;-43
2021/01/27 04:00:45;;;;;;;64.10;31.73;;;2.00;99.90;;;;;;5026747;28;20441;-43
2021/01/27 04:03:16;;;;;;;67.43;33.70;;;2.00;99.90;;;;;;5028171;28;20047;-44
2021/01/27 04:05:42;;;;;;;68.70;34.65;;;2.00;99.90;;;;;;5027491;28;20079;-45
2021/01/27 04:08:07;;;;;;;69.45;33.58;;;2.00;99.90;;;;;;5027662;28;20026;-44
2021/01/27 04:10:33;;;;;;;74.43;32.78;;;2.00;99.90;;;;;;5027600;28;20111;-43
2021/01/27 04:12:59;;;;;;;60.75;30.70;;;2.00;99.90;;;;;;5027750;28;20037;-43
2021/01/27 04:15:25;;;;;;;61.22;31.48;;;2.10;99.90;;;;;;5009179;28;20021;-44
2021/01/27 04:17:50;;;;;;;56.25;29.67;;;2.10;99.90;;;;;;5028243;28;20048;-43
2021/01/27 04:20:18;;;;;;;64.57;33.15;;;2.10;99.90;;;;;;5027347;28;20059;-44
2021/01/27 04:22:43;;;;;;;62.20;33.28;;;2.10;99.90;;;;;;5016174;28;20033;-44
2021/01/27 04:25:10;;;;;;;61.05;32.10;;;2.10;99.90;;;;;;5020892;28;20101;-44
2021/01/27 04:27:36;;;;;;;64.80;33.60;;;2.20;99.90;;;;;;5019804;28;20091;-45
2021/01/27 04:30:05;;;;;;;65.25;32.63;;;2.10;99.90;;;;;;5027340;28;20033;-45
2021/01/27 04:32:31;;;;;;;54.65;28.17;;;2.20;99.90;;;;;;5029699;28;20037;-44
2021/01/27 04:34:57;;;;;;;61.03;31.25;;;2.10;99.90;;;;;;5028916;28;20040;-45
2021/01/27 04:37:23;;;;;;;66.45;31.60;;;2.20;99.90;;;;;;5029800;28;20041;-44
2021/01/27 04:39:48;;;;;;;61.47;30.55;;;2.10;99.90;;;;;;5006901;28;20076;-44
2021/01/27 04:42:20;;;;;;;62.95;31.98;;;2.10;99.90;;;;;;5022482;28;20033;-43
2021/01/27 04:44:45;;;;;;;58.38;30.50;;;2.10;99.90;;;;;;5021593;28;20057;-44
2021/01/27 04:47:23;;;;;;;67.70;33.35;;;2.10;99.90;;;;;;5019934;28;20056;-45
2021/01/27 04:49:53;;;;;;;56.65;29.88;;;2.10;99.90;;;;;;5021444;28;20395;-44
2021/01/27 04:52:54;;;;;;;63.42;33.85;;;2.10;99.90;;;;;;5025273;28;20131;-44
2021/01/27 04:55:32;;;;;;;57.25;31.05;;;2.10;99.90;;;;;;5006547;28;20282;-44
2021/01/27 04:58:24;;;;;;;73.40;35.33;;;2.10;99.90;;;;;;5022249;28;20022;-46
2021/01/27 05:01:14;;;;;;;71.38;34.13;;;2.00;99.90;;;;;;5007074;28;20021;-46
2021/01/27 05:03:51;;;;;;;66.70;33.35;;;2.00;99.90;;;;;;5031093;28;20044;-45
2021/01/27 05:06:26;;;;;;;64.85;32.65;;;1.90;99.90;;;;;;5029410;28;20470;-46
2021/01/27 05:09:26;;;;;;;66.78;34.00;;;2.00;99.90;;;;;;5032222;28;20025;-45
2021/01/27 05:11:53;;;;;;;;;;;2.00;99.90;;;;;;5030861;28;20044;-46
2021/01/27 05:14:20;;;;;;;64.68;31.63;;;1.90;99.90;;;;;;5029221;28;19913;-47
2021/01/27 05:16:50;;;;;;;61.42;31.48;;;2.00;99.90;;;;;;5031501;28;20076;-46
2021/01/27 05:19:15;;;;;;;64.60;33.28;;;2.00;99.90;;;;;;5032179;28;20039;-47
2021/01/27 05:21:46;;;;;;;66.13;33.00;;;2.00;99.90;;;;;;5031259;28;20112;-47
2021/01/27 05:24:12;;;;;;;66.95;32.13;;;2.00;99.90;;;;;;5032039;28;20391;-46
2021/01/27 05:27:04;;;;;;;61.83;30.55;;;2.00;99.90;;;;;;5031057;28;20032;-47
2021/01/27 05:29:44;;;;;;;60.90;31.58;;;2.10;99.90;;;;;;5047595;28;20592;-44
2021/01/27 05:32:12;;;;;;;60.63;30.85;;;2.00;99.90;;;;;;5032340;28;20041;-44
2021/01/27 05:34:45;;;;;;;60.80;31.52;;;2.00;99.90;;;;;;5030297;28;20029;-47
2021/01/27 05:37:28;;;;;;;56.10;30.13;;;2.00;99.90;;;;;;5030648;28;20034;-44
2021/01/27 05:40:07;;;;;;;62.72;31.73;;;2.00;99.90;;;;;;5026482;28;20026;-44
2021/01/27 05:42:36;;;;;;;62.50;33.15;;;1.90;99.90;;;;;;5021500;28;20084;-46
2021/01/27 05:45:39;;;;;;;56.15;30.00;;;1.90;99.90;;;;;;5020026;28;20118;-46
2021/01/27 05:48:27;;;;;;;59.53;32.22;;;2.00;99.90;;;;;;5020033;28;20125;-44
2021/01/27 05:51:13;;;;;;;60.90;31.00;;;1.90;99.90;;;;;;5030403;28;20029;-43
2021/01/27 05:53:39;;;;;;;65.25;32.05;;;1.90;99.90;;;;;;5028640;28;20025;-44
2021/01/27 05:56:16;;;;;;;57.65;29.00;;;1.90;99.90;;;;;;5030332;28;20025;-44
2021/01/27 05:58:54;;;;;;;66.53;30.90;;;1.90;99.90;;;;;;5030929;28;20033;-47
2021/01/27 06:01:21;;;;;;;55.95;29.70;;;2.00;99.90;;;;;;5031152;28;20056;-45
2021/01/27 06:03:58;;;;;;;55.30;28.65;;;2.00;99.90;;;;;;5031278;28;20071;-47
2021/01/27 06:06:26;;;;;;;54.70;28.95;;;2.00;99.90;;;;;;5030713;28;20026;-44
2021/01/27 06:08:54;;;;;;;56.42;28.80;;;2.00;99.90;;;;;;5031198;28;20478;-46
2021/01/27 06:11:21;;;;;;;63.05;29.55;;;2.00;99.90;;;;;;5030762;28;20602;-44
2021/01/27 06:13:48;;;;;;;53.95;26.73;;;2.00;99.90;;;;;;5031100;28;20048;-44
2021/01/27 06:16:43;;;;;;;53.08;27.88;;;2.00;99.90;;;;;;5030264;28;20036;-45
2021/01/27 06:19:11;;;;;;;51.78;26.25;;;2.10;99.90;;;;;;5030006;28;20041;-45
2021/01/27 06:21:47;;;;;;;58.30;27.27;;;2.00;99.90;;;;;;5023222;28;20033;-46
2021/01/27 06:24:22;;;;;;;52.00;27.73;;;2.00;99.90;;;;;;5019362;28;20106;-45
2021/01/27 06:27:02;;;;;;;51.42;26.42;;;2.00;99.90;;;;;;5018709;28;20763;-45
2021/01/27 06:30:01;;;;;;;51.42;26.60;;;2.00;99.90;;;;;;5021409;28;20026;-44
2021/01/27 06:32:58;;;;;;;50.50;27.13;;;2.00;99.90;;;;;;5002332;28;20029;-44
2021/01/27 06:35:46;;;;;;;54.15;25.70;;;2.00;99.90;;;;;;5021434;28;20116;-45
2021/01/27 06:38:21;;;;;;;48.92;27.02;;;2.00;99.90;;;;;;5022871;28;20099;-46
2021/01/27 06:41:09;;;;;;;55.10;25.95;;;2.10;99.90;;;;;;5023629;28;20030;-45
2021/01/27 06:43:47;;;;;;;46.42;23.48;;;2.10;99.90;;;;;;5020949;28;20017;-46
2021/01/27 06:46:39;;;;;;;47.45;24.70;;;2.10;99.90;;;;;;5018929;28;20105;-47
2021/01/27 06:49:27;;;;;;;52.15;25.73;;;2.10;99.90;;;;;;5020985;28;20446;-45
2021/01/27 06:52:06;;;;;;;47.28;24.08;;;2.00;99.90;;;;;;5021347;28;20033;-45
2021/01/27 06:54:54;;;;;;;47.28;23.85;;;2.00;99.90;;;;;;5017568;28;20025;-46
2021/01/27 06:57:39;;;;;;;50.55;25.63;;;2.00;99.90;;;;;;5017561;28;20056;-44
2021/01/27 07:00:24;;;;;;;44.65;24.50;;;2.10;99.90;;;;;;5021216;28;20040;-45
2021/01/27 07:03:31;;;;;;;47.72;24.65;;;2.00;99.90;;;;;;5020265;28;20494;-44
2021/01/27 07:06:16;;;;;;;45.17;24.27;;;2.10;99.90;;;;;;5021014;28;20475;-44
2021/01/27 07:09:03;;;;;;;44.88;23.48;;;2.00;99.90;;;;;;5026378;28;20022;-45
2021/01/27 07:11:48;;;;;;;45.95;24.02;;;2.00;99.90;;;;;;5010417;28;20475;-47
2021/01/27 07:14:43;;;;;;;45.25;22.70;;;2.00;99.90;;;;;;5010160;28;20056;-48
2021/01/27 07:17:31;;;;;;;43.35;23.92;;;2.00;99.90;;;;;;4999402;28;20666;-48
2021/01/27 07:20:40;;;;;;;43.13;24.00;;;2.00;99.90;;;;;;5026343;28;20040;-49
2021/01/27 07:23:21;;;;;;;41.05;23.08;;;2.00;99.90;;;;;;5013538;28;20049;-44
2021/01/27 07:25:46;;;;;;;;;;;2.00;99.90;;;;;;5028295;28;20029;-45
2021/01/27 07:28:19;;;;;;;45.42;23.55;;;2.00;99.90;;;;;;5025790;28;19932;-44
2021/01/27 07:30:53;;;;;;;46.80;24.15;;;2.00;99.90;;;;;;5027218;28;20024;-44
2021/01/27 07:33:28;;;;;;;40.20;22.73;;;2.00;99.90;;;;;;5010245;28;20029;-44
2021/01/27 07:36:00;;;;;;;36.55;21.35;;;2.10;99.90;;;;;;5015333;28;20152;-46
2021/01/27 07:38:29;;;;;;;38.88;22.52;;;2.10;99.90;;;;;;5025265;28;20435;-47
2021/01/27 07:41:16;;;;;;;44.10;22.33;;;2.10;99.90;;;;;;5024664;28;20017;-48
2021/01/27 07:44:03;;;;;;;35.17;20.70;;;2.10;99.90;;;;;;5028273;28;20741;-46
2021/01/27 07:46:43;;;;;;;36.78;21.33;;;2.20;99.90;;;;;;5026700;28;20025;-45
2021/01/27 07:49:14;;;;;;;38.45;20.95;;;2.20;99.90;;;;;;5029558;28;20036;-44
2021/01/27 07:51:52;;;;;;;39.63;21.10;;;2.20;99.90;;;;;;5012459;28;20038;-45
2021/01/27 07:54:38;;;;;;;40.35;21.38;;;2.20;99.90;;;;;;5018723;28;20021;-47
2021/01/27 07:57:11;;;;;;;36.28;21.42;;;2.20;99.90;;;;;;5022951;28;20044;-45
2021/01/27 08:00:11;;;;;;;38.60;20.33;;;2.20;99.90;;;;;;5023798;28;20030;-46
2021/01/27 08:03:03;;;;;;;40.55;22.13;;;2.20;99.90;;;;;;5018306;28;20040;-44
2021/01/27 08:05:36;;;;;;;39.13;22.33;;;2.20;99.90;;;;;;5028906;28;20108;-47
2021/01/27 08:11:31;;;;;;;32.05;19.35;;;2.20;99.90;;;;;;5024564;28;20044;-45
2021/01/27 08:13:57;;;;;;;34.67;20.10;;;2.20;99.90;;;;;;5022317;28;20029;-49
2021/01/27 08:16:28;;;;;;;35.78;19.77;;;2.20;99.90;;;;;;5022664;28;20509;-46
2021/01/27 08:19:19;;;;;;;33.97;18.17;;;2.20;99.90;;;;;;5006243;28;20603;-48
2021/01/27 08:21:50;;;;;;;32.08;19.05;;;2.20;99.90;;;;;;5019086;28;20048;-46
2021/01/27 08:24:37;;;;;;;31.20;18.23;;;2.30;99.90;;;;;;5025139;28;20119;-46
2021/01/27 08:27:15;;;;;;;34.65;18.33;;;2.30;99.90;;;;;;5022035;28;20034;-45
2021/01/27 08:29:45;;;;;;;38.08;19.33;;;2.30;99.90;;;;;;5022897;28;20395;-44
2021/01/27 08:32:24;;;;;;;35.58;18.25;;;2.40;99.90;;;;;;5022176;28;20040;-47
2021/01/27 08:34:52;;;;;;;28.85;16.55;;;2.50;99.90;;;;;;5019332;28;20096;-46
2021/01/27 08:37:27;;;;;;;27.35;16.40;;;2.50;99.90;;;;;;5023977;28;20022;-47
2021/01/27 08:40:05;;;;;;;29.98;17.13;;;2.50;99.90;;;;;;5024529;28;20499;-45
2021/01/27 08:42:47;;;;;;;31.10;15.85;;;2.50;99.90;;;;;;5022950;28;20038;-46
2021/01/27 08:45:21;;;;;;;29.77;15.82;;;2.60;99.90;;;;;;5023715;28;20030;-47
2021/01/27 08:47:47;;;;;;;29.38;16.48;;;2.70;99.90;;;;;;5020618;28;20022;-44
2021/01/27 08:50:31;;;;;;;27.95;16.67;;;2.90;99.90;;;;;;5019816;28;20057;-47
2021/01/27 08:53:08;;;;;;;24.08;15.18;;;3.00;99.90;;;;;;5024034;28;20026;-45
2021/01/27 08:55:37;;;;;;;22.52;14.02;;;3.10;99.90;;;;;;5022687;28;20029;-46
2021/01/27 08:58:27;;;;;;;24.27;14.90;;;3.10;99.90;;;;;;5026685;28;20025;-44
2021/01/27 09:00:59;;;;;;;22.02;14.43;;;3.20;99.90;;;;;;5023676;28;20101;-45
2021/01/27 09:03:45;;;;;;;28.17;15.35;;;3.20;99.90;;;;;;5024225;28;20080;-46
2021/01/27 09:06:44;;;;;;;27.27;14.55;;;3.30;99.90;;;;;;5022079;28;20025;-46
2021/01/27 09:09:30;;;;;;;23.02;13.70;;;3.40;99.90;;;;;;5022500;28;20028;-46
2021/01/27 09:12:00;;;;;;;18.50;13.25;;;3.20;99.90;;;;;;5031658;28;20025;-46
2021/01/27 09:14:26;;;;;;;23.30;13.05;;;3.30;99.90;;;;;;5030227;28;20041;-45
2021/01/27 09:16:52;;;;;;;22.17;12.60;;;3.20;99.90;;;;;;5024666;28;20033;-46
2021/01/27 09:19:21;;;;;;;21.60;11.55;;;3.40;99.90;;;;;;5027298;28;20028;-46
2021/01/27 09:21:57;;;;;;;21.63;11.45;;;3.30;99.90;;;;;;5030067;28;20032;-49
2021/01/27 09:24:41;;;;;;;17.38;10.02;;;3.50;99.90;;;;;;5022430;28;20030;-45
2021/01/27 09:27:28;;;;;;;19.33;11.20;;;3.50;99.90;;;;;;5029594;28;20037;-46
2021/01/27 09:30:10;;;;;;;13.00;9.52;;;3.50;99.90;;;;;;5026163;28;20022;-45
2021/01/27 09:32:36;;;;;;;16.60;9.80;;;3.60;99.90;;;;;;5023554;28;20025;-47
2021/01/27 09:35:21;;;;;;;15.25;9.55;;;3.60;99.90;;;;;;5023671;28;20033;-46
2021/01/27 09:37:58;;;;;;;14.68;9.27;;;3.60;99.90;;;;;;5023391;28;20084;-47
2021/01/27 09:40:48;;;;;;;14.27;9.43;;;3.70;99.90;;;;;;5022349;28;20598;-45
2021/01/27 09:43:16;;;;;;;14.37;9.37;;;3.60;99.90;;;;;;5023769;28;20026;-45
2021/01/27 09:45:44;;;;;;;13.93;9.20;;;3.70;99.90;;;;;;5020075;28;20022;-48
2021/01/27 09:48:12;;;;;;;15.25;9.90;;;3.70;99.90;;;;;;5025666;28;20125;-45
2021/01/27 09:50:40;;;;;;;15.65;9.45;;;3.70;99.90;;;;;;5021109;28;20022;-45
2021/01/27 09:56:29;;;;;;;17.33;9.95;;;3.60;99.90;;;;;;5024965;28;20033;-45
2021/01/27 09:58:57;;;;;;;18.15;9.88;;;3.80;99.90;;;;;;5003416;28;20026;-47
2021/01/27 10:01:26;;;;;;;10.52;8.25;;;4.10;99.90;;;;;;5026562;28;20080;-47
2021/01/27 10:03:54;;;;;;;11.77;8.18;;;4.20;99.90;;;;;;5027459;28;20028;-45
2021/01/27 10:06:44;;;;;;;13.20;9.07;;;3.90;99.90;;;;;;5030155;28;20028;-46
2021/01/27 10:09:58;;;;;;;13.35;9.18;;;3.90;99.90;;;;;;5029220;28;20112;-48
2021/01/27 10:12:27;;;;;;;15.77;9.30;;;4.20;99.90;;;;;;5001486;28;20145;-48
2021/01/27 10:15:05;;;;;;;14.77;8.13;;;4.30;99.90;;;;;;5010971;28;20092;-45
2021/01/27 10:17:31;;;;;;;12.30;8.77;;;4.40;99.90;;;;;;5027590;28;20038;-46
2021/01/27 10:20:21;;;;;;;12.13;7.07;;;4.30;99.90;;;;;;5028131;28;20075;-46
2021/01/27 10:23:36;;;;;;;9.07;6.60;;;4.40;99.90;;;;;;5027684;28;20037;-45
2021/01/27 10:26:23;;;;;;;8.88;6.28;;;4.60;99.90;;;;;;5026007;28;20040;-48
2021/01/27 10:29:17;;;;;;;8.90;5.07;;;6.00;99.90;;;;;;5031064;28;20032;-46
2021/01/27 10:31:48;;;;;;;7.45;5.13;;;7.70;93.90;;;;;;5011067;28;20022;-48
2021/01/27 10:34:39;;;;;;;7.93;4.85;;;8.70;88.70;;;;;;5010156;28;20080;-47
2021/01/27 10:37:44;;;;;;;10.63;5.00;;;10.10;72.00;;;;;;5009789;28;20111;-46
2021/01/27 10:40:28;;;;;;;5.35;4.05;;;11.80;63.10;;;;;;5010726;28;20037;-46
2021/01/27 10:42:58;;;;;;;5.00;4.38;;;13.10;59.50;;;;;;5017352;28;20037;-49
2021/01/27 10:45:25;;;;;;;4.43;3.85;;;12.80;56.50;;;;;;5017983;28;20045;-47
2021/01/27 10:47:59;;;;;;;4.25;3.72;;;14.00;53.20;;;;;;5018848;28;20124;-46
2021/01/27 10:50:26;;;;;;;5.78;3.90;;;12.90;53.20;;;;;;5021647;28;20467;-46
2021/01/27 10:52:52;;;;;;;6.00;3.75;;;13.70;54.40;;;;;;5028868;28;20429;-44
2021/01/27 10:55:19;;;;;;;4.18;3.70;;;13.20;53.30;;;;;;5017215;28;20037;-46
2021/01/27 10:57:45;;;;;;;5.25;3.53;;;13.10;54.00;;;;;;5018816;28;20491;-45
2021/01/27 11:00:31;;;;;;;6.03;4.00;;;13.60;52.30;;;;;;5002141;28;20037;-46
2021/01/27 11:02:57;;;;;;;5.55;3.90;;;13.70;51.00;;;;;;5013411;28;20042;-46
2021/01/27 11:05:23;;;;;;;5.28;3.60;;;14.40;50.00;;;;;;5012600;28;20067;-45
2021/01/27 11:07:49;;;;;;;6.07;3.45;;;14.70;50.00;;;;;;5000581;28;20334;-46
2021/01/27 11:10:15;;;;;;;5.22;4.38;;;14.30;51.30;;;;;;5027840;28;20557;-44
2021/01/27 11:12:40;;;;;;;6.00;3.83;;;14.10;48.00;;;;;;5028574;28;20048;-45
2021/01/27 11:15:06;;;;;;;5.75;3.72;;;13.20;53.50;;;;;;5010176;28;20021;-45
2021/01/27 11:17:32;;;;;;;6.28;3.72;;;13.80;52.30;;;;;;5028835;28;20579;-48
2021/01/27 11:19:57;;;;;;;5.22;3.60;;;13.10;51.80;;;;;;5027802;28;20033;-46
2021/01/27 11:22:23;;;;;;;6.93;3.63;;;13.80;50.70;;;;;;5006873;28;20505;-46
2021/01/27 11:24:48;;;;;;;3.47;3.17;;;14.60;50.40;;;;;;5018928;28;20033;-46
2021/01/27 11:27:14;;;;;;;5.78;4.18;;;14.10;49.40;;;;;;5029502;28;20029;-46
2021/01/27 11:29:39;;;;;;;3.53;3.22;;;12.10;52.60;;;;;;5024526;28;20374;-47
2021/01/27 11:32:05;;;;;;;6.82;3.45;;;12.20;56.60;;;;;;5019586;28;20021;-45
2021/01/27 11:34:30;;;;;;;5.95;3.55;;;13.20;54.90;;;;;;5018774;28;20025;-46
2021/01/27 11:36:56;;;;;;;6.45;3.60;;;13.60;52.20;;;;;;5021002;28;20040;-45
2021/01/27 11:39:21;;;;;;;5.10;3.05;;;13.10;52.80;;;;;;5017233;28;20030;-46
2021/01/27 11:41:47;;;;;;;5.55;3.58;;;12.20;54.10;;;;;;5019371;28;20076;-44
2021/01/27 11:44:13;;;;;;;4.85;3.38;;;11.20;56.40;;;;;;5022379;28;20621;-46
2021/01/27 11:46:38;;;;;;;5.72;3.10;;;9.90;59.20;;;;;;5025983;28;20681;-45
2021/01/27 11:49:04;;;;;;;5.88;3.42;;;9.50;63.80;;;;;;5029843;28;20017;-45
2021/01/27 11:51:30;;;;;;;4.07;2.92;;;9.50;63.40;;;;;;5027951;28;20061;-45
2021/01/27 11:53:55;;;;;;;5.40;3.22;;;9.10;64.30;;;;;;5029441;28;20021;-44
2021/01/27 11:56:21;;;;;;;7.28;3.20;;;8.40;65.70;;;;;;5010790;28;20034;-45
2021/01/27 11:58:46;;;;;;;7.28;4.10;;;8.30;68.00;;;;;;5025440;28;20045;-46
2021/01/27 12:01:12;;;;;;;6.90;3.58;;;8.20;69.40;;;;;;5017892;28;20033;-45
2021/01/27 12:03:37;;;;;;;6.57;3.70;;;7.90;71.00;;;;;;5018346;28;20458;-45
2021/01/27 12:06:03;;;;;;;5.43;3.47;;;7.40;72.90;;;;;;5017684;28;20117;-44
2021/01/27 12:08:28;;;;;;;4.70;3.55;;;7.00;77.70;;;;;;5013632;28;20057;-47
2021/01/27 12:10:54;;;;;;;5.15;3.50;;;6.90;86.10;;;;;;5019983;28;20026;-49
2021/01/27 12:13:40;;;;;;;5.45;3.47;;;6.70;86.60;;;;;;5007113;28;20033;-46
2021/01/27 12:16:05;;;;;;;7.03;3.90;;;6.20;90.10;;;;;;5034893;28;20041;-48
2021/01/27 12:18:31;;;;;;;5.97;3.80;;;6.10;94.90;;;;;;5027782;28;20029;-46
2021/01/27 12:20:56;;;;;;;6.50;3.50;;;6.00;95.50;;;;;;5015747;28;20045;-47
2021/01/27 12:23:22;;;;;;;7.60;3.90;;;5.80;96.80;;;;;;5024470;28;20707;-46
2021/01/27 12:25:47;;;;;;;5.32;3.88;;;5.80;97.50;;;;;;5043609;28;20117;-45
2021/01/27 12:28:14;;;;;;;6.25;3.78;;;5.70;98.30;;;;;;5028461;28;20040;-49
2021/01/27 12:30:40;;;;;;;7.25;4.40;;;5.60;99.90;;;;;;5027769;28;20474;-46
2021/01/27 12:33:05;;;;;;;15.60;5.40;;;5.40;99.90;;;;;;5029201;28;20033;-46
2021/01/27 12:35:31;;;;;;;7.18;4.63;;;5.20;99.90;;;;;;5028042;28;20167;-46
2021/01/27 12:37:58;;;;;;;8.55;4.72;;;5.30;99.90;;;;;;5029442;28;20025;-47
2021/01/27 12:40:24;;;;;;;6.25;4.38;;;5.10;99.90;;;;;;5026947;28;20116;-45
2021/01/27 12:42:51;;;;;;;8.52;4.40;;;5.10;99.90;;;;;;5027917;28;20029;-45
2021/01/27 12:45:20;;;;;;;7.05;4.50;;;5.00;99.90;;;;;;5012110;28;20022;-45
2021/01/27 12:47:45;;;;;;;6.70;4.03;;;5.00;99.90;;;;;;5025285;28;20105;-46
2021/01/27 12:50:11;;;;;;;9.18;4.00;;;5.10;99.90;;;;;;5030258;28;20760;-45
2021/01/27 12:52:37;;;;;;;6.80;3.95;;;5.10;99.90;;;;;;5031510;28;20380;-45
2021/01/27 12:55:09;;;;;;;5.13;3.83;;;5.00;99.90;;;;;;5030617;28;20022;-46
2021/01/27 12:57:35;;;;;;;7.03;4.05;;;4.90;99.90;;;;;;5031326;28;20030;-46
2021/01/27 13:00:03;;;;;;;5.57;4.03;;;4.80;99.90;;;;;;5046551;28;20462;-49
2021/01/27 13:02:28;;;;;;;8.63;4.03;;;4.80;99.90;;;;;;5030595;28;20116;-45
2021/01/27 13:04:54;;;;;;;7.90;3.72;;;4.90;99.90;;;;;;5044454;28;20109;-45
2021/01/27 13:07:19;;;;;;;7.05;4.35;;;4.90;99.90;;;;;;5029203;28;20029;-46
2021/01/27 13:09:45;;;;;;;8.48;4.10;;;4.70;99.90;;;;;;5025636;28;20380;-45
2021/01/27 13:12:10;;;;;;;6.72;4.35;;;4.70;99.90;;;;;;5030658;28;20030;-46
2021/01/27 13:14:36;;;;;;;6.10;4.45;;;4.70;99.90;;;;;;5029097;28;20026;-44
2021/01/27 13:17:01;;;;;;;9.80;4.50;;;4.60;99.90;;;;;;5018436;28;20506;-45
2021/01/27 13:19:27;;;;;;;6.25;4.18;;;4.50;99.90;;;;;;5014983;28;20022;-46
2021/01/27 13:21:53;;;;;;;6.97;4.32;;;4.40;99.90;;;;;;5018038;28;20056;-44
2021/01/27 13:24:18;;;;;;;7.32;5.40;;;4.30;99.90;;;;;;5023477;28;20053;-47